sensor_id;sensor_type;location;lat;lon;timestamp;P1;durP1;ratioP1;P2;durP2;ratioP2
10605;SDS011;5350;42.698;23.148;2024-01-16T00:02:05;2.17;;;0.77;;
10605;SDS011;5350;42.698;23.148;2024-01-16T00:04:33;7.23;;;0.97;;
10605;SDS011;5350;42.698;23.148;2024-01-16T00:06:59;2.40;;;1.03;;
10605;SDS011;5350;42.698;23.148;2024-01-16T00:09:26;2.30;;;0.87;;
10605;SDS011;5350;42.698;23.148;2024-01-16T00:11:53;4.00;;;1.20;;
10605;SDS011;5350;42.698;23.148;2024-01-16T00:14:20;3.17;;;1.07;;
10605;SDS011;5350;42.698;23.148;2024-01-16T00:16:46;6.27;;;1.03;;
10605;SDS011;5350;42.698;23.148;2024-01-16T00:19:15;2.93;;;1.20;;
10605;SDS011;5350;42.698;23.148;2024-01-16T00:21:42;3.30;;;0.90;;
10605;SDS011;5350;42.698;23.148;2024-01-16T00:24:10;1.20;;;0.80;;
10605;SDS011;5350;42.698;23.148;2024-01-16T00:26:37;1.10;;;0.90;;
10605;SDS011;5350;42.698;23.148;2024-01-16T00:29:04;2.50;;;0.93;;
10605;SDS011;5350;42.698;23.148;2024-01-16T00:31:30;0.83;;;0.57;;
10605;SDS011;5350;42.698;23.148;2024-01-16T00:33:57;0.60;;;0.60;;
10605;SDS011;5350;42.698;23.148;2024-01-16T00:36:25;1.90;;;0.60;;
10605;SDS011;5350;42.698;23.148;2024-01-16T00:38:52;2.47;;;0.40;;
10605;SDS011;5350;42.698;23.148;2024-01-16T00:41:19;2.10;;;0.80;;
10605;SDS011;5350;42.698;23.148;2024-01-16T00:43:46;1.13;;;0.50;;
10605;SDS011;5350;42.698;23.148;2024-01-16T00:46:12;3.40;;;1.13;;
10605;SDS011;5350;42.698;23.148;2024-01-16T00:48:39;0.93;;;0.60;;
10605;SDS011;5350;42.698;23.148;2024-01-16T00:51:06;2.50;;;0.50;;
10605;SDS011;5350;42.698;23.148;2024-01-16T00:53:34;2.37;;;0.80;;
10605;SDS011;5350;42.698;23.148;2024-01-16T00:56:06;2.20;;;0.77;;
10605;SDS011;5350;42.698;23.148;2024-01-16T00:58:32;0.93;;;0.60;;
10605;SDS011;5350;42.698;23.148;2024-01-16T01:00:59;2.20;;;1.10;;
10605;SDS011;5350;42.698;23.148;2024-01-16T01:03:26;4.07;;;0.83;;
10605;SDS011;5350;42.698;23.148;2024-01-16T01:05:52;3.07;;;0.67;;
10605;SDS011;5350;42.698;23.148;2024-01-16T01:08:19;0.43;;;0.40;;
10605;SDS011;5350;42.698;23.148;2024-01-16T01:10:47;3.43;;;1.13;;
10605;SDS011;5350;42.698;23.148;2024-01-16T01:13:14;2.20;;;1.00;;
10605;SDS011;5350;42.698;23.148;2024-01-16T01:15:41;4.17;;;0.70;;
10605;SDS011;5350;42.698;23.148;2024-01-16T01:18:08;3.10;;;1.07;;
10605;SDS011;5350;42.698;23.148;2024-01-16T01:20:34;9.37;;;1.30;;
10605;SDS011;5350;42.698;23.148;2024-01-16T01:23:01;3.40;;;1.27;;
10605;SDS011;5350;42.698;23.148;2024-01-16T01:25:28;2.50;;;1.27;;
10605;SDS011;5350;42.698;23.148;2024-01-16T01:27:56;10.30;;;3.00;;
10605;SDS011;5350;42.698;23.148;2024-01-16T01:30:22;1.73;;;1.10;;
10605;SDS011;5350;42.698;23.148;2024-01-16T01:32:49;2.33;;;1.27;;
10605;SDS011;5350;42.698;23.148;2024-01-16T01:35:16;3.07;;;1.17;;
10605;SDS011;5350;42.698;23.148;2024-01-16T01:37:44;1.47;;;0.90;;
10605;SDS011;5350;42.698;23.148;2024-01-16T01:40:11;2.20;;;0.80;;
10605;SDS011;5350;42.698;23.148;2024-01-16T01:42:40;1.93;;;1.07;;
10605;SDS011;5350;42.698;23.148;2024-01-16T01:45:10;1.87;;;1.07;;
10605;SDS011;5350;42.698;23.148;2024-01-16T01:47:37;1.47;;;1.07;;
10605;SDS011;5350;42.698;23.148;2024-01-16T01:50:04;2.27;;;1.27;;
10605;SDS011;5350;42.698;23.148;2024-01-16T01:52:33;1.00;;;0.90;;
10605;SDS011;5350;42.698;23.148;2024-01-16T01:55:00;0.70;;;0.57;;
10605;SDS011;5350;42.698;23.148;2024-01-16T01:57:29;0.83;;;0.80;;
10605;SDS011;5350;42.698;23.148;2024-01-16T01:59:56;1.73;;;0.73;;
10605;SDS011;5350;42.698;23.148;2024-01-16T02:02:24;1.57;;;0.53;;
10605;SDS011;5350;42.698;23.148;2024-01-16T02:04:51;0.73;;;0.63;;
10605;SDS011;5350;42.698;23.148;2024-01-16T02:07:18;2.10;;;0.53;;
10605;SDS011;5350;42.698;23.148;2024-01-16T02:09:45;2.13;;;1.03;;
10605;SDS011;5350;42.698;23.148;2024-01-16T02:12:12;1.67;;;0.80;;
10605;SDS011;5350;42.698;23.148;2024-01-16T02:14:38;1.63;;;1.20;;
10605;SDS011;5350;42.698;23.148;2024-01-16T02:17:05;2.80;;;1.20;;
10605;SDS011;5350;42.698;23.148;2024-01-16T02:19:33;2.33;;;0.97;;
10605;SDS011;5350;42.698;23.148;2024-01-16T02:22:00;1.37;;;0.70;;
10605;SDS011;5350;42.698;23.148;2024-01-16T02:24:33;0.63;;;0.57;;
10605;SDS011;5350;42.698;23.148;2024-01-16T02:27:00;1.77;;;1.23;;
10605;SDS011;5350;42.698;23.148;2024-01-16T02:29:27;1.43;;;0.80;;
10605;SDS011;5350;42.698;23.148;2024-01-16T02:31:54;1.30;;;1.00;;
10605;SDS011;5350;42.698;23.148;2024-01-16T02:34:21;5.00;;;2.73;;
10605;SDS011;5350;42.698;23.148;2024-01-16T02:36:48;3.63;;;1.30;;
10605;SDS011;5350;42.698;23.148;2024-01-16T02:39:14;0.87;;;0.80;;
10605;SDS011;5350;42.698;23.148;2024-01-16T02:41:42;1.53;;;1.33;;
10605;SDS011;5350;42.698;23.148;2024-01-16T02:44:09;1.73;;;1.10;;
10605;SDS011;5350;42.698;23.148;2024-01-16T02:46:36;1.63;;;1.10;;
10605;SDS011;5350;42.698;23.148;2024-01-16T02:49:04;2.90;;;2.10;;
10605;SDS011;5350;42.698;23.148;2024-01-16T02:51:32;3.83;;;2.00;;
10605;SDS011;5350;42.698;23.148;2024-01-16T02:53:59;3.83;;;2.10;;
10605;SDS011;5350;42.698;23.148;2024-01-16T02:56:25;1.00;;;0.80;;
10605;SDS011;5350;42.698;23.148;2024-01-16T02:58:53;1.50;;;1.00;;
10605;SDS011;5350;42.698;23.148;2024-01-16T03:01:21;0.97;;;0.87;;
10605;SDS011;5350;42.698;23.148;2024-01-16T03:03:47;1.03;;;0.80;;
10605;SDS011;5350;42.698;23.148;2024-01-16T03:06:21;1.13;;;0.50;;
10605;SDS011;5350;42.698;23.148;2024-01-16T03:08:48;1.83;;;1.03;;
10605;SDS011;5350;42.698;23.148;2024-01-16T03:11:15;1.80;;;1.43;;
10605;SDS011;5350;42.698;23.148;2024-01-16T03:13:42;1.63;;;1.53;;
10605;SDS011;5350;42.698;23.148;2024-01-16T03:16:11;1.60;;;1.33;;
10605;SDS011;5350;42.698;23.148;2024-01-16T03:18:37;2.23;;;2.03;;
10605;SDS011;5350;42.698;23.148;2024-01-16T03:21:05;2.97;;;2.03;;
10605;SDS011;5350;42.698;23.148;2024-01-16T03:23:32;2.53;;;2.10;;
10605;SDS011;5350;42.698;23.148;2024-01-16T03:25:59;2.40;;;2.20;;
10605;SDS011;5350;42.698;23.148;2024-01-16T03:28:26;2.93;;;2.57;;
10605;SDS011;5350;42.698;23.148;2024-01-16T03:30:52;1.83;;;1.73;;
10605;SDS011;5350;42.698;23.148;2024-01-16T03:33:21;1.40;;;1.30;;
10605;SDS011;5350;42.698;23.148;2024-01-16T03:35:48;2.07;;;1.90;;
10605;SDS011;5350;42.698;23.148;2024-01-16T03:38:15;2.60;;;2.40;;
10605;SDS011;5350;42.698;23.148;2024-01-16T03:40:42;2.07;;;1.80;;
10605;SDS011;5350;42.698;23.148;2024-01-16T03:43:08;3.17;;;1.70;;
10605;SDS011;5350;42.698;23.148;2024-01-16T03:45:35;2.10;;;1.90;;
10605;SDS011;5350;42.698;23.148;2024-01-16T03:48:02;1.77;;;1.67;;
10605;SDS011;5350;42.698;23.148;2024-01-16T03:50:30;2.80;;;2.60;;
10605;SDS011;5350;42.698;23.148;2024-01-16T03:52:58;1.63;;;1.50;;
10605;SDS011;5350;42.698;23.148;2024-01-16T03:55:25;1.20;;;1.10;;
10605;SDS011;5350;42.698;23.148;2024-01-16T03:57:52;1.90;;;1.70;;
10605;SDS011;5350;42.698;23.148;2024-01-16T04:00:18;3.00;;;2.80;;
10605;SDS011;5350;42.698;23.148;2024-01-16T04:02:45;3.60;;;1.73;;
10605;SDS011;5350;42.698;23.148;2024-01-16T04:05:12;1.93;;;1.80;;
10605;SDS011;5350;42.698;23.148;2024-01-16T04:07:40;1.40;;;1.30;;
10605;SDS011;5350;42.698;23.148;2024-01-16T04:10:07;1.37;;;1.27;;
10605;SDS011;5350;42.698;23.148;2024-01-16T04:12:34;1.33;;;1.23;;
10605;SDS011;5350;42.698;23.148;2024-01-16T04:15:01;1.97;;;1.87;;
10605;SDS011;5350;42.698;23.148;2024-01-16T04:17:27;2.70;;;1.50;;
10605;SDS011;5350;42.698;23.148;2024-01-16T04:19:54;1.30;;;1.20;;
10605;SDS011;5350;42.698;23.148;2024-01-16T04:22:21;1.37;;;1.27;;
10605;SDS011;5350;42.698;23.148;2024-01-16T04:24:49;2.20;;;1.40;;
10605;SDS011;5350;42.698;23.148;2024-01-16T04:27:15;1.20;;;1.10;;
10605;SDS011;5350;42.698;23.148;2024-01-16T04:29:42;1.53;;;1.30;;
10605;SDS011;5350;42.698;23.148;2024-01-16T04:32:09;1.63;;;1.53;;
10605;SDS011;5350;42.698;23.148;2024-01-16T04:34:35;2.43;;;1.90;;
10605;SDS011;5350;42.698;23.148;2024-01-16T04:37:02;1.33;;;1.23;;
10605;SDS011;5350;42.698;23.148;2024-01-16T04:39:29;1.27;;;1.03;;
10605;SDS011;5350;42.698;23.148;2024-01-16T04:41:57;1.43;;;1.00;;
10605;SDS011;5350;42.698;23.148;2024-01-16T04:44:24;1.30;;;1.00;;
10605;SDS011;5350;42.698;23.148;2024-01-16T04:46:51;2.20;;;2.00;;
10605;SDS011;5350;42.698;23.148;2024-01-16T04:49:18;0.93;;;0.90;;
10605;SDS011;5350;42.698;23.148;2024-01-16T04:51:44;1.27;;;1.17;;
10605;SDS011;5350;42.698;23.148;2024-01-16T04:54:12;1.20;;;1.10;;
10605;SDS011;5350;42.698;23.148;2024-01-16T04:56:39;0.87;;;0.87;;
10605;SDS011;5350;42.698;23.148;2024-01-16T04:59:07;1.37;;;1.17;;
10605;SDS011;5350;42.698;23.148;2024-01-16T05:01:34;1.00;;;1.00;;
10605;SDS011;5350;42.698;23.148;2024-01-16T05:04:00;1.63;;;0.97;;
10605;SDS011;5350;42.698;23.148;2024-01-16T05:06:28;0.80;;;0.80;;
10605;SDS011;5350;42.698;23.148;2024-01-16T05:08:55;1.30;;;0.93;;
10605;SDS011;5350;42.698;23.148;2024-01-16T05:11:22;0.63;;;0.60;;
10605;SDS011;5350;42.698;23.148;2024-01-16T05:13:48;0.67;;;0.60;;
10605;SDS011;5350;42.698;23.148;2024-01-16T05:16:16;0.70;;;0.60;;
10605;SDS011;5350;42.698;23.148;2024-01-16T05:18:43;1.27;;;0.60;;
10605;SDS011;5350;42.698;23.148;2024-01-16T05:21:10;0.40;;;0.40;;
10605;SDS011;5350;42.698;23.148;2024-01-16T05:23:37;0.60;;;0.60;;
10605;SDS011;5350;42.698;23.148;2024-01-16T05:26:04;1.07;;;0.87;;
10605;SDS011;5350;42.698;23.148;2024-01-16T05:28:30;1.03;;;0.73;;
10605;SDS011;5350;42.698;23.148;2024-01-16T05:30:57;1.10;;;1.00;;
10605;SDS011;5350;42.698;23.148;2024-01-16T05:33:27;0.40;;;0.40;;
10605;SDS011;5350;42.698;23.148;2024-01-16T05:35:54;1.03;;;0.57;;
10605;SDS011;5350;42.698;23.148;2024-01-16T05:38:23;0.67;;;0.67;;
10605;SDS011;5350;42.698;23.148;2024-01-16T05:40:49;2.27;;;0.93;;
10605;SDS011;5350;42.698;23.148;2024-01-16T05:43:17;3.20;;;1.40;;
10605;SDS011;5350;42.698;23.148;2024-01-16T05:45:43;1.70;;;1.00;;
10605;SDS011;5350;42.698;23.148;2024-01-16T05:48:10;3.97;;;1.67;;
10605;SDS011;5350;42.698;23.148;2024-01-16T05:50:39;2.17;;;1.17;;
10605;SDS011;5350;42.698;23.148;2024-01-16T05:53:05;1.10;;;0.80;;
10605;SDS011;5350;42.698;23.148;2024-01-16T05:55:32;3.47;;;1.50;;
10605;SDS011;5350;42.698;23.148;2024-01-16T05:58:01;3.03;;;1.30;;
10605;SDS011;5350;42.698;23.148;2024-01-16T06:00:28;1.50;;;0.87;;
10605;SDS011;5350;42.698;23.148;2024-01-16T06:02:55;1.10;;;0.80;;
10605;SDS011;5350;42.698;23.148;2024-01-16T06:05:22;2.50;;;1.10;;
10605;SDS011;5350;42.698;23.148;2024-01-16T06:07:51;1.37;;;0.97;;
10605;SDS011;5350;42.698;23.148;2024-01-16T06:10:18;1.60;;;0.77;;
10605;SDS011;5350;42.698;23.148;2024-01-16T06:12:45;1.23;;;0.70;;
10605;SDS011;5350;42.698;23.148;2024-01-16T06:15:11;3.23;;;1.50;;
10605;SDS011;5350;42.698;23.148;2024-01-16T06:17:38;3.20;;;2.17;;
10605;SDS011;5350;42.698;23.148;2024-01-16T06:20:06;1.53;;;1.30;;
10605;SDS011;5350;42.698;23.148;2024-01-16T06:22:33;2.17;;;1.50;;
10605;SDS011;5350;42.698;23.148;2024-01-16T06:25:01;0.40;;;0.40;;
10605;SDS011;5350;42.698;23.148;2024-01-16T06:27:28;0.60;;;0.60;;
10605;SDS011;5350;42.698;23.148;2024-01-16T06:29:54;1.00;;;0.50;;
10605;SDS011;5350;42.698;23.148;2024-01-16T06:32:21;0.60;;;0.50;;
10605;SDS011;5350;42.698;23.148;2024-01-16T06:34:48;0.87;;;0.50;;
10605;SDS011;5350;42.698;23.148;2024-01-16T06:37:15;0.60;;;0.50;;
10605;SDS011;5350;42.698;23.148;2024-01-16T06:39:42;1.87;;;1.30;;
10605;SDS011;5350;42.698;23.148;2024-01-16T06:42:10;0.97;;;0.50;;
10605;SDS011;5350;42.698;23.148;2024-01-16T06:44:36;1.77;;;1.33;;
10605;SDS011;5350;42.698;23.148;2024-01-16T06:47:03;1.70;;;1.17;;
10605;SDS011;5350;42.698;23.148;2024-01-16T06:49:30;0.50;;;0.43;;
10605;SDS011;5350;42.698;23.148;2024-01-16T06:51:57;0.40;;;0.30;;
10605;SDS011;5350;42.698;23.148;2024-01-16T06:54:24;0.37;;;0.37;;
10605;SDS011;5350;42.698;23.148;2024-01-16T06:56:51;0.30;;;0.27;;
10605;SDS011;5350;42.698;23.148;2024-01-16T06:59:19;0.20;;;0.20;;
10605;SDS011;5350;42.698;23.148;2024-01-16T07:01:47;0.53;;;0.40;;
10605;SDS011;5350;42.698;23.148;2024-01-16T07:04:13;0.97;;;0.70;;
10605;SDS011;5350;42.698;23.148;2024-01-16T07:06:40;0.97;;;0.47;;
10605;SDS011;5350;42.698;23.148;2024-01-16T07:09:07;0.40;;;0.30;;
10605;SDS011;5350;42.698;23.148;2024-01-16T07:11:35;0.37;;;0.30;;
10605;SDS011;5350;42.698;23.148;2024-01-16T07:14:03;1.83;;;1.00;;
10605;SDS011;5350;42.698;23.148;2024-01-16T07:16:31;0.87;;;0.40;;
10605;SDS011;5350;42.698;23.148;2024-01-16T07:18:58;0.27;;;0.27;;
10605;SDS011;5350;42.698;23.148;2024-01-16T07:21:24;1.10;;;0.40;;
10605;SDS011;5350;42.698;23.148;2024-01-16T07:23:51;1.43;;;0.73;;
10605;SDS011;5350;42.698;23.148;2024-01-16T07:26:19;2.30;;;0.70;;
10605;SDS011;5350;42.698;23.148;2024-01-16T07:28:46;1.23;;;0.70;;
10605;SDS011;5350;42.698;23.148;2024-01-16T07:31:13;1.23;;;0.73;;
10605;SDS011;5350;42.698;23.148;2024-01-16T07:33:43;0.67;;;0.50;;
10605;SDS011;5350;42.698;23.148;2024-01-16T07:36:10;0.83;;;0.70;;
10605;SDS011;5350;42.698;23.148;2024-01-16T07:38:37;1.37;;;0.70;;
10605;SDS011;5350;42.698;23.148;2024-01-16T07:41:04;0.60;;;0.50;;
10605;SDS011;5350;42.698;23.148;2024-01-16T07:43:31;2.40;;;0.77;;
10605;SDS011;5350;42.698;23.148;2024-01-16T07:45:58;0.50;;;0.50;;
10605;SDS011;5350;42.698;23.148;2024-01-16T07:48:25;0.53;;;0.43;;
10605;SDS011;5350;42.698;23.148;2024-01-16T07:50:53;0.87;;;0.67;;
10605;SDS011;5350;42.698;23.148;2024-01-16T07:53:20;0.93;;;0.50;;
10605;SDS011;5350;42.698;23.148;2024-01-16T07:55:46;0.30;;;0.30;;
10605;SDS011;5350;42.698;23.148;2024-01-16T07:58:13;0.40;;;0.30;;
10605;SDS011;5350;42.698;23.148;2024-01-16T08:00:40;3.40;;;1.67;;
10605;SDS011;5350;42.698;23.148;2024-01-16T08:03:07;0.67;;;0.50;;
10605;SDS011;5350;42.698;23.148;2024-01-16T08:05:36;0.20;;;0.20;;
10605;SDS011;5350;42.698;23.148;2024-01-16T08:08:04;0.93;;;0.70;;
10605;SDS011;5350;42.698;23.148;2024-01-16T08:10:34;1.07;;;0.60;;
10605;SDS011;5350;42.698;23.148;2024-01-16T08:13:01;0.73;;;0.27;;
10605;SDS011;5350;42.698;23.148;2024-01-16T08:15:28;0.30;;;0.20;;
10605;SDS011;5350;42.698;23.148;2024-01-16T08:17:55;0.70;;;0.40;;
10605;SDS011;5350;42.698;23.148;2024-01-16T08:20:21;1.40;;;0.73;;
10605;SDS011;5350;42.698;23.148;2024-01-16T08:22:48;0.43;;;0.30;;
10605;SDS011;5350;42.698;23.148;2024-01-16T08:25:17;0.63;;;0.40;;
10605;SDS011;5350;42.698;23.148;2024-01-16T08:27:43;0.60;;;0.40;;
10605;SDS011;5350;42.698;23.148;2024-01-16T08:30:10;0.60;;;0.30;;
10605;SDS011;5350;42.698;23.148;2024-01-16T08:32:38;0.87;;;0.43;;
10605;SDS011;5350;42.698;23.148;2024-01-16T08:35:05;0.73;;;0.43;;
10605;SDS011;5350;42.698;23.148;2024-01-16T08:37:33;1.10;;;0.40;;
10605;SDS011;5350;42.698;23.148;2024-01-16T08:40:00;0.40;;;0.40;;
10605;SDS011;5350;42.698;23.148;2024-01-16T08:42:29;0.20;;;0.20;;
10605;SDS011;5350;42.698;23.148;2024-01-16T08:44:56;0.30;;;0.20;;
10605;SDS011;5350;42.698;23.148;2024-01-16T08:47:23;0.60;;;0.30;;
10605;SDS011;5350;42.698;23.148;2024-01-16T08:49:50;0.33;;;0.30;;
10605;SDS011;5350;42.698;23.148;2024-01-16T08:52:17;0.20;;;0.20;;
10605;SDS011;5350;42.698;23.148;2024-01-16T08:54:44;0.50;;;0.50;;
10605;SDS011;5350;42.698;23.148;2024-01-16T08:57:10;0.60;;;0.43;;
10605;SDS011;5350;42.698;23.148;2024-01-16T08:59:39;0.80;;;0.63;;
10605;SDS011;5350;42.698;23.148;2024-01-16T09:02:06;1.60;;;1.00;;
10605;SDS011;5350;42.698;23.148;2024-01-16T09:04:33;2.87;;;1.60;;
10605;SDS011;5350;42.698;23.148;2024-01-16T09:07:00;0.40;;;0.30;;
10605;SDS011;5350;42.698;23.148;2024-01-16T09:09:29;0.43;;;0.30;;
10605;SDS011;5350;42.698;23.148;2024-01-16T09:11:56;1.50;;;0.13;;
10605;SDS011;5350;42.698;23.148;2024-01-16T09:14:24;0.50;;;0.30;;
10605;SDS011;5350;42.698;23.148;2024-01-16T09:16:52;0.30;;;0.30;;
10605;SDS011;5350;42.698;23.148;2024-01-16T09:19:19;1.13;;;0.60;;
10605;SDS011;5350;42.698;23.148;2024-01-16T09:21:46;0.27;;;0.20;;
10605;SDS011;5350;42.698;23.148;2024-01-16T09:24:13;0.83;;;0.50;;
10605;SDS011;5350;42.698;23.148;2024-01-16T09:26:39;0.50;;;0.50;;
10605;SDS011;5350;42.698;23.148;2024-01-16T09:29:07;0.67;;;0.60;;
10605;SDS011;5350;42.698;23.148;2024-01-16T09:31:34;0.43;;;0.30;;
10605;SDS011;5350;42.698;23.148;2024-01-16T09:34:02;0.83;;;0.47;;
10605;SDS011;5350;42.698;23.148;2024-01-16T09:36:29;1.23;;;0.80;;
10605;SDS011;5350;42.698;23.148;2024-01-16T09:38:56;2.10;;;1.17;;
10605;SDS011;5350;42.698;23.148;2024-01-16T09:41:23;0.60;;;0.37;;
10605;SDS011;5350;42.698;23.148;2024-01-16T09:43:50;1.17;;;0.40;;
10605;SDS011;5350;42.698;23.148;2024-01-16T09:46:17;6.97;;;3.43;;
10605;SDS011;5350;42.698;23.148;2024-01-16T09:48:46;0.77;;;0.37;;
10605;SDS011;5350;42.698;23.148;2024-01-16T09:51:15;1.27;;;0.30;;
10605;SDS011;5350;42.698;23.148;2024-01-16T09:53:42;0.30;;;0.30;;
10605;SDS011;5350;42.698;23.148;2024-01-16T09:56:09;1.63;;;1.27;;
10605;SDS011;5350;42.698;23.148;2024-01-16T09:58:40;0.80;;;0.80;;
10605;SDS011;5350;42.698;23.148;2024-01-16T10:01:08;0.30;;;0.30;;
10605;SDS011;5350;42.698;23.148;2024-01-16T10:03:34;0.50;;;0.40;;
10605;SDS011;5350;42.698;23.148;2024-01-16T10:06:02;0.20;;;0.20;;
10605;SDS011;5350;42.698;23.148;2024-01-16T10:08:33;0.43;;;0.43;;
10605;SDS011;5350;42.698;23.148;2024-01-16T10:11:00;0.40;;;0.33;;
10605;SDS011;5350;42.698;23.148;2024-01-16T10:13:26;0.17;;;0.17;;
10605;SDS011;5350;42.698;23.148;2024-01-16T10:15:53;0.20;;;0.20;;
10605;SDS011;5350;42.698;23.148;2024-01-16T10:18:23;0.43;;;0.20;;
10605;SDS011;5350;42.698;23.148;2024-01-16T10:20:51;0.37;;;0.30;;
10605;SDS011;5350;42.698;23.148;2024-01-16T10:23:22;0.30;;;0.20;;
10605;SDS011;5350;42.698;23.148;2024-01-16T10:26:01;0.30;;;0.27;;
10605;SDS011;5350;42.698;23.148;2024-01-16T10:28:31;0.20;;;0.20;;
10605;SDS011;5350;42.698;23.148;2024-01-16T10:31:01;0.30;;;0.20;;
10605;SDS011;5350;42.698;23.148;2024-01-16T10:33:28;0.20;;;0.20;;
10605;SDS011;5350;42.698;23.148;2024-01-16T10:36:01;0.60;;;0.50;;
10605;SDS011;5350;42.698;23.148;2024-01-16T10:38:34;0.67;;;0.47;;
10605;SDS011;5350;42.698;23.148;2024-01-16T10:41:08;0.60;;;0.50;;
10605;SDS011;5350;42.698;23.148;2024-01-16T10:43:36;1.03;;;0.50;;
10605;SDS011;5350;42.698;23.148;2024-01-16T10:46:07;0.20;;;0.20;;
10605;SDS011;5350;42.698;23.148;2024-01-16T10:48:35;0.83;;;0.20;;
10605;SDS011;5350;42.698;23.148;2024-01-16T10:51:02;0.40;;;0.27;;
10605;SDS011;5350;42.698;23.148;2024-01-16T10:53:29;0.20;;;0.20;;
10605;SDS011;5350;42.698;23.148;2024-01-16T10:55:59;0.20;;;0.20;;
10605;SDS011;5350;42.698;23.148;2024-01-16T10:58:28;0.30;;;0.20;;
10605;SDS011;5350;42.698;23.148;2024-01-16T11:00:57;0.87;;;0.30;;
10605;SDS011;5350;42.698;23.148;2024-01-16T11:03:28;0.40;;;0.17;;
10605;SDS011;5350;42.698;23.148;2024-01-16T11:06:00;0.20;;;0.20;;
10605;SDS011;5350;42.698;23.148;2024-01-16T11:08:31;0.30;;;0.30;;
10605;SDS011;5350;42.698;23.148;2024-01-16T11:10:59;1.30;;;0.50;;
10605;SDS011;5350;42.698;23.148;2024-01-16T11:13:28;0.67;;;0.27;;
10605;SDS011;5350;42.698;23.148;2024-01-16T11:15:56;0.50;;;0.40;;
10605;SDS011;5350;42.698;23.148;2024-01-16T11:18:25;1.37;;;0.50;;
10605;SDS011;5350;42.698;23.148;2024-01-16T11:20:56;1.57;;;0.40;;
10605;SDS011;5350;42.698;23.148;2024-01-16T11:23:24;0.30;;;0.30;;
10605;SDS011;5350;42.698;23.148;2024-01-16T11:25:51;0.57;;;0.20;;
10605;SDS011;5350;42.698;23.148;2024-01-16T11:28:18;0.30;;;0.30;;
10605;SDS011;5350;42.698;23.148;2024-01-16T11:30:46;1.33;;;0.50;;
10605;SDS011;5350;42.698;23.148;2024-01-16T11:39:10;0.40;;;0.40;;
10605;SDS011;5350;42.698;23.148;2024-01-16T11:41:52;0.50;;;0.50;;
10605;SDS011;5350;42.698;23.148;2024-01-16T11:44:36;0.93;;;0.80;;
10605;SDS011;5350;42.698;23.148;2024-01-16T11:47:05;1.20;;;0.87;;
10605;SDS011;5350;42.698;23.148;2024-01-16T11:49:32;1.33;;;0.77;;
10605;SDS011;5350;42.698;23.148;2024-01-16T11:51:59;0.80;;;0.67;;
10605;SDS011;5350;42.698;23.148;2024-01-16T11:54:26;1.77;;;1.00;;
10605;SDS011;5350;42.698;23.148;2024-01-16T11:59:57;1.00;;;0.90;;
10605;SDS011;5350;42.698;23.148;2024-01-16T12:02:29;0.73;;;0.60;;
10605;SDS011;5350;42.698;23.148;2024-01-16T12:05:14;0.47;;;0.40;;
10605;SDS011;5350;42.698;23.148;2024-01-16T12:07:47;0.87;;;0.80;;
10605;SDS011;5350;42.698;23.148;2024-01-16T12:10:17;0.50;;;0.50;;
10605;SDS011;5350;42.698;23.148;2024-01-16T12:12:45;0.60;;;0.40;;
10605;SDS011;5350;42.698;23.148;2024-01-16T12:15:13;0.87;;;0.53;;
10605;SDS011;5350;42.698;23.148;2024-01-16T12:20:26;0.97;;;0.97;;
10605;SDS011;5350;42.698;23.148;2024-01-16T12:22:54;0.77;;;0.77;;
10605;SDS011;5350;42.698;23.148;2024-01-16T12:25:22;0.80;;;0.80;;
10605;SDS011;5350;42.698;23.148;2024-01-16T12:27:55;0.97;;;0.70;;
10605;SDS011;5350;42.698;23.148;2024-01-16T12:30:24;1.37;;;1.17;;
10605;SDS011;5350;42.698;23.148;2024-01-16T12:33:03;1.87;;;0.90;;
10605;SDS011;5350;42.698;23.148;2024-01-16T12:35:32;1.23;;;1.00;;
10605;SDS011;5350;42.698;23.148;2024-01-16T12:37:59;0.63;;;0.63;;
10605;SDS011;5350;42.698;23.148;2024-01-16T12:40:27;0.80;;;0.60;;
10605;SDS011;5350;42.698;23.148;2024-01-16T12:42:54;0.67;;;0.67;;
10605;SDS011;5350;42.698;23.148;2024-01-16T12:45:21;1.83;;;1.10;;
10605;SDS011;5350;42.698;23.148;2024-01-16T12:47:51;1.20;;;1.00;;
10605;SDS011;5350;42.698;23.148;2024-01-16T12:50:20;1.30;;;1.10;;
10605;SDS011;5350;42.698;23.148;2024-01-16T12:52:48;2.10;;;1.00;;
10605;SDS011;5350;42.698;23.148;2024-01-16T12:55:15;1.20;;;1.10;;
10605;SDS011;5350;42.698;23.148;2024-01-16T12:57:44;1.77;;;1.20;;
10605;SDS011;5350;42.698;23.148;2024-01-16T13:00:20;1.30;;;1.20;;
10605;SDS011;5350;42.698;23.148;2024-01-16T13:02:49;3.47;;;1.63;;
10605;SDS011;5350;42.698;23.148;2024-01-16T13:05:16;1.93;;;0.83;;
10605;SDS011;5350;42.698;23.148;2024-01-16T13:07:44;1.60;;;1.33;;
10605;SDS011;5350;42.698;23.148;2024-01-16T13:10:12;1.20;;;1.10;;
10605;SDS011;5350;42.698;23.148;2024-01-16T13:12:41;0.50;;;0.50;;
10605;SDS011;5350;42.698;23.148;2024-01-16T13:15:08;0.80;;;0.80;;
10605;SDS011;5350;42.698;23.148;2024-01-16T13:17:36;1.07;;;0.93;;
10605;SDS011;5350;42.698;23.148;2024-01-16T13:20:03;1.30;;;1.20;;
10605;SDS011;5350;42.698;23.148;2024-01-16T13:22:32;1.57;;;1.30;;
10605;SDS011;5350;42.698;23.148;2024-01-16T13:25:00;1.50;;;1.17;;
10605;SDS011;5350;42.698;23.148;2024-01-16T13:27:27;1.07;;;0.90;;
10605;SDS011;5350;42.698;23.148;2024-01-16T13:29:55;1.90;;;1.80;;
10605;SDS011;5350;42.698;23.148;2024-01-16T13:32:22;5.43;;;2.37;;
10605;SDS011;5350;42.698;23.148;2024-01-16T13:34:48;1.70;;;1.50;;
10605;SDS011;5350;42.698;23.148;2024-01-16T13:37:17;2.00;;;1.40;;
10605;SDS011;5350;42.698;23.148;2024-01-16T13:39:48;0.80;;;0.80;;
10605;SDS011;5350;42.698;23.148;2024-01-16T13:42:16;2.17;;;1.43;;
10605;SDS011;5350;42.698;23.148;2024-01-16T13:44:45;7.60;;;4.37;;
10605;SDS011;5350;42.698;23.148;2024-01-16T13:47:13;3.23;;;2.30;;
10605;SDS011;5350;42.698;23.148;2024-01-16T13:49:41;1.73;;;1.20;;
10605;SDS011;5350;42.698;23.148;2024-01-16T13:52:08;1.30;;;1.20;;
10605;SDS011;5350;42.698;23.148;2024-01-16T13:54:36;2.00;;;1.30;;
10605;SDS011;5350;42.698;23.148;2024-01-16T13:57:03;2.67;;;1.27;;
10605;SDS011;5350;42.698;23.148;2024-01-16T13:59:32;1.43;;;1.00;;
10605;SDS011;5350;42.698;23.148;2024-01-16T14:01:59;1.33;;;0.90;;
10605;SDS011;5350;42.698;23.148;2024-01-16T14:04:26;1.80;;;1.53;;
10605;SDS011;5350;42.698;23.148;2024-01-16T14:06:52;1.13;;;1.03;;
10605;SDS011;5350;42.698;23.148;2024-01-16T14:09:19;1.30;;;0.87;;
10605;SDS011;5350;42.698;23.148;2024-01-16T14:11:46;1.37;;;1.10;;
10605;SDS011;5350;42.698;23.148;2024-01-16T14:14:12;1.30;;;1.10;;
10605;SDS011;5350;42.698;23.148;2024-01-16T14:16:40;1.40;;;1.30;;
10605;SDS011;5350;42.698;23.148;2024-01-16T14:19:07;2.17;;;1.30;;
10605;SDS011;5350;42.698;23.148;2024-01-16T14:21:34;1.67;;;1.30;;
10605;SDS011;5350;42.698;23.148;2024-01-16T14:24:00;3.57;;;2.03;;
10605;SDS011;5350;42.698;23.148;2024-01-16T14:26:27;2.03;;;1.80;;
10605;SDS011;5350;42.698;23.148;2024-01-16T14:28:54;4.53;;;3.33;;
10605;SDS011;5350;42.698;23.148;2024-01-16T14:31:21;2.63;;;2.03;;
10605;SDS011;5350;42.698;23.148;2024-01-16T14:33:49;2.33;;;1.83;;
10605;SDS011;5350;42.698;23.148;2024-01-16T14:36:16;2.33;;;1.70;;
10605;SDS011;5350;42.698;23.148;2024-01-16T14:38:43;2.20;;;1.40;;
10605;SDS011;5350;42.698;23.148;2024-01-16T14:41:10;2.77;;;2.33;;
10605;SDS011;5350;42.698;23.148;2024-01-16T14:43:37;2.03;;;1.43;;
10605;SDS011;5350;42.698;23.148;2024-01-16T14:46:04;2.03;;;1.83;;
10605;SDS011;5350;42.698;23.148;2024-01-16T14:48:35;2.03;;;1.70;;
10605;SDS011;5350;42.698;23.148;2024-01-16T14:51:03;1.80;;;1.60;;
10605;SDS011;5350;42.698;23.148;2024-01-16T14:53:31;2.93;;;1.90;;
10605;SDS011;5350;42.698;23.148;2024-01-16T14:55:57;3.37;;;2.00;;
10605;SDS011;5350;42.698;23.148;2024-01-16T14:58:24;2.03;;;1.40;;
10605;SDS011;5350;42.698;23.148;2024-01-16T15:00:51;2.37;;;1.50;;
10605;SDS011;5350;42.698;23.148;2024-01-16T15:03:19;3.33;;;1.63;;